sensor_id;sensor_type;location;lat;lon;timestamp;pressure;altitude;pressure_sealevel;temperature;humidity
74895;BME280;63447;49.446;8.666;2023-02-15T00:01:57;101968.22;;;1.61;85.94
74895;BME280;63447;49.446;8.666;2023-02-15T00:04:25;101948.94;;;1.51;85.65
74895;BME280;63447;49.446;8.666;2023-02-15T00:07:12;101956.38;;;1.44;86.01
74895;BME280;63447;49.446;8.666;2023-02-15T00:09:41;101964.53;;;1.44;86.51
74895;BME280;63447;49.446;8.666;2023-02-15T00:12:08;101969.38;;;1.42;86.39
74895;BME280;63447;49.446;8.666;2023-02-15T00:14:34;101960.28;;;1.48;87.76
74895;BME280;63447;49.446;8.666;2023-02-15T00:17:02;101963.59;;;1.50;87.05
74895;BME280;63447;49.446;8.666;2023-02-15T00:19:31;101961.50;;;1.52;87.07
74895;BME280;63447;49.446;8.666;2023-02-15T00:21:57;101954.72;;;1.43;85.91
74895;BME280;63447;49.446;8.666;2023-02-15T00:24:25;101950.00;;;1.50;87.41
74895;BME280;63447;49.446;8.666;2023-02-15T00:26:50;101954.63;;;1.50;88.03
74895;BME280;63447;49.446;8.666;2023-02-15T00:29:18;101945.28;;;1.57;88.14
74895;BME280;63447;49.446;8.666;2023-02-15T00:31:46;101936.22;;;1.33;86.88
74895;BME280;63447;49.446;8.666;2023-02-15T00:34:14;101953.31;;;1.52;87.61
74895;BME280;63447;49.446;8.666;2023-02-15T00:36:41;101953.94;;;1.54;87.72
74895;BME280;63447;49.446;8.666;2023-02-15T00:39:07;101953.94;;;1.54;87.86
74895;BME280;63447;49.446;8.666;2023-02-15T00:41:36;101944.69;;;1.55;86.98
74895;BME280;63447;49.446;8.666;2023-02-15T00:44:01;101948.72;;;1.53;86.99
74895;BME280;63447;49.446;8.666;2023-02-15T00:46:27;101936.53;;;1.55;87.04
74895;BME280;63447;49.446;8.666;2023-02-15T00:48:55;101948.13;;;1.62;85.89
74895;BME280;63447;49.446;8.666;2023-02-15T00:51:20;101943.38;;;1.46;85.75
74895;BME280;63447;49.446;8.666;2023-02-15T00:53:48;101937.09;;;1.46;87.17
74895;BME280;63447;49.446;8.666;2023-02-15T00:56:18;101930.34;;;1.36;86.25
74895;BME280;63447;49.446;8.666;2023-02-15T00:58:44;101938.16;;;1.45;87.27
74895;BME280;63447;49.446;8.666;2023-02-15T01:01:12;101938.91;;;1.52;88.32
74895;BME280;63447;49.446;8.666;2023-02-15T01:03:38;101927.78;;;1.53;86.96
74895;BME280;63447;49.446;8.666;2023-02-15T01:06:04;101932.84;;;1.50;86.01
74895;BME280;63447;49.446;8.666;2023-02-15T01:08:30;101931.09;;;1.55;87.03
74895;BME280;63447;49.446;8.666;2023-02-15T01:10:56;101927.06;;;1.58;87.03
74895;BME280;63447;49.446;8.666;2023-02-15T01:13:22;101919.72;;;1.58;85.73
74895;BME280;63447;49.446;8.666;2023-02-15T01:15:54;101924.09;;;1.48;86.32
74895;BME280;63447;49.446;8.666;2023-02-15T01:18:20;101926.53;;;1.26;86.59
74895;BME280;63447;49.446;8.666;2023-02-15T01:20:46;101929.22;;;1.14;87.26
74895;BME280;63447;49.446;8.666;2023-02-15T01:23:12;101921.50;;;1.11;87.80
74895;BME280;63447;49.446;8.666;2023-02-15T01:25:40;101916.94;;;1.23;88.79
74895;BME280;63447;49.446;8.666;2023-02-15T01:28:08;101921.47;;;1.41;88.72
74895;BME280;63447;49.446;8.666;2023-02-15T01:30:33;101920.06;;;1.39;87.64
74895;BME280;63447;49.446;8.666;2023-02-15T01:32:59;101921.94;;;1.38;87.03
74895;BME280;63447;49.446;8.666;2023-02-15T01:35:26;101916.38;;;1.33;86.89
74895;BME280;63447;49.446;8.666;2023-02-15T01:37:51;101921.94;;;1.38;87.44
74895;BME280;63447;49.446;8.666;2023-02-15T01:40:19;101919.34;;;1.43;87.52
74895;BME280;63447;49.446;8.666;2023-02-15T01:42:45;101925.59;;;1.32;86.35
74895;BME280;63447;49.446;8.666;2023-02-15T01:47:51;101926.13;;;1.52;88.55
74895;BME280;63447;49.446;8.666;2023-02-15T01:50:45;101908.97;;;1.63;87.75
74895;BME280;63447;49.446;8.666;2023-02-15T01:53:21;101906.84;;;1.65;86.75
74895;BME280;63447;49.446;8.666;2023-02-15T01:55:50;101912.66;;;1.69;86.25
74895;BME280;63447;49.446;8.666;2023-02-15T01:58:21;101899.53;;;1.66;85.82
74895;BME280;63447;49.446;8.666;2023-02-15T02:00:46;101908.63;;;1.72;85.90
74895;BME280;63447;49.446;8.666;2023-02-15T02:03:15;101909.34;;;1.79;86.37
74895;BME280;63447;49.446;8.666;2023-02-15T02:05:43;101908.75;;;1.77;84.72
74895;BME280;63447;49.446;8.666;2023-02-15T02:08:10;101890.41;;;1.60;85.03
74895;BME280;63447;49.446;8.666;2023-02-15T02:10:36;101909.22;;;1.74;85.49
74895;BME280;63447;49.446;8.666;2023-02-15T02:13:05;101903.78;;;1.74;85.49
74895;BME280;63447;49.446;8.666;2023-02-15T02:15:50;101908.63;;;1.72;85.85
74895;BME280;63447;49.446;8.666;2023-02-15T02:23:34;101896.06;;;1.47;87.45
74895;BME280;63447;49.446;8.666;2023-02-15T02:26:44;101898.56;;;1.60;86.74
74895;BME280;63447;49.446;8.666;2023-02-15T02:32:17;101887.22;;;1.63;86.22
74895;BME280;63447;49.446;8.666;2023-02-15T02:35:01;101872.66;;;1.46;85.38
74895;BME280;63447;49.446;8.666;2023-02-15T02:37:50;101881.63;;;1.35;86.47
74895;BME280;63447;49.446;8.666;2023-02-15T02:43:32;101874.78;;;1.44;87.20
74895;BME280;63447;49.446;8.666;2023-02-15T02:46:13;101870.03;;;1.28;86.05
74895;BME280;63447;49.446;8.666;2023-02-15T02:48:40;101866.34;;;1.34;87.80
74895;BME280;63447;49.446;8.666;2023-02-15T02:51:06;101862.13;;;1.38;87.77
74895;BME280;63447;49.446;8.666;2023-02-15T02:53:32;101860.13;;;1.45;87.12
74895;BME280;63447;49.446;8.666;2023-02-15T02:56:15;101867.44;;;1.56;86.34
74895;BME280;63447;49.446;8.666;2023-02-15T02:59:01;101867.34;;;1.63;86.70
74895;BME280;63447;49.446;8.666;2023-02-15T03:01:35;101866.38;;;1.57;85.44
74895;BME280;63447;49.446;8.666;2023-02-15T03:04:10;101857.75;;;1.60;86.51
74895;BME280;63447;49.446;8.666;2023-02-15T03:06:50;101858.34;;;1.62;85.77
74895;BME280;63447;49.446;8.666;2023-02-15T03:09:29;101844.50;;;1.64;86.27
74895;BME280;63447;49.446;8.666;2023-02-15T03:12:11;101838.13;;;1.58;85.40
74895;BME280;63447;49.446;8.666;2023-02-15T03:14:40;101844.41;;;1.70;86.78
74895;BME280;63447;49.446;8.666;2023-02-15T03:17:06;101845.59;;;1.75;86.60
74895;BME280;63447;49.446;8.666;2023-02-15T03:19:35;101847.94;;;1.71;85.41
74895;BME280;63447;49.446;8.666;2023-02-15T03:22:14;101836.47;;;1.57;86.19
74895;BME280;63447;49.446;8.666;2023-02-15T03:24:50;101855.75;;;1.67;86.81
74895;BME280;63447;49.446;8.666;2023-02-15T03:27:21;101856.47;;;1.63;85.46
74895;BME280;63447;49.446;8.666;2023-02-15T03:29:51;101860.59;;;1.65;86.38
74895;BME280;63447;49.446;8.666;2023-02-15T03:32:17;101856.56;;;1.56;85.69
74895;BME280;63447;49.446;8.666;2023-02-15T03:34:43;101846.19;;;1.53;85.77
74895;BME280;63447;49.446;8.666;2023-02-15T03:37:25;101855.16;;;1.42;85.17
74895;BME280;63447;49.446;8.666;2023-02-15T03:39:56;101856.94;;;1.48;87.82
74895;BME280;63447;49.446;8.666;2023-02-15T03:42:45;101862.75;;;1.52;87.91
74895;BME280;63447;49.446;8.666;2023-02-15T03:45:17;101868.88;;;1.59;87.23
74895;BME280;63447;49.446;8.666;2023-02-15T03:47:49;101858.00;;;1.47;86.19
74895;BME280;63447;49.446;8.666;2023-02-15T03:53:06;101878.91;;;1.58;85.70
74895;BME280;63447;49.446;8.666;2023-02-15T03:55:36;101874.22;;;1.54;84.51
74895;BME280;63447;49.446;8.666;2023-02-15T03:58:02;101865.69;;;1.50;86.32
74895;BME280;63447;49.446;8.666;2023-02-15T04:00:57;101856.09;;;1.24;85.99
74895;BME280;63447;49.446;8.666;2023-02-15T04:03:51;101861.53;;;1.36;86.22
74895;BME280;63447;49.446;8.666;2023-02-15T04:06:19;101863.91;;;1.44;87.38
74895;BME280;63447;49.446;8.666;2023-02-15T04:08:44;101859.63;;;1.36;87.32
74895;BME280;63447;49.446;8.666;2023-02-15T04:11:30;101870.41;;;1.43;86.37
74895;BME280;63447;49.446;8.666;2023-02-15T04:13:58;101857.16;;;1.35;85.56
74895;BME280;63447;49.446;8.666;2023-02-15T04:16:26;101866.00;;;1.30;86.68
74895;BME280;63447;49.446;8.666;2023-02-15T04:18:53;101860.31;;;1.32;86.87
74895;BME280;63447;49.446;8.666;2023-02-15T04:21:37;101864.94;;;1.31;87.46
74895;BME280;63447;49.446;8.666;2023-02-15T04:24:21;101852.75;;;1.34;87.43
74895;BME280;63447;49.446;8.666;2023-02-15T04:27:07;101846.84;;;1.37;86.57
74895;BME280;63447;49.446;8.666;2023-02-15T04:29:32;101853.03;;;1.44;86.53
74895;BME280;63447;49.446;8.666;2023-02-15T04:32:01;101851.72;;;1.47;86.75
74895;BME280;63447;49.446;8.666;2023-02-15T04:34:28;101850.53;;;1.43;86.40
74895;BME280;63447;49.446;8.666;2023-02-15T04:36:56;101847.22;;;1.41;86.07
74895;BME280;63447;49.446;8.666;2023-02-15T04:39:21;101844.28;;;1.42;85.99
74895;BME280;63447;49.446;8.666;2023-02-15T04:41:47;101842.97;;;1.45;85.95
74895;BME280;63447;49.446;8.666;2023-02-15T04:44:14;101822.97;;;1.39;85.84
74895;BME280;63447;49.446;8.666;2023-02-15T04:46:40;101840.38;;;1.50;85.72
74895;BME280;63447;49.446;8.666;2023-02-15T04:49:05;101835.78;;;1.50;85.83
74895;BME280;63447;49.446;8.666;2023-02-15T04:51:30;101827.25;;;1.47;85.47
74895;BME280;63447;49.446;8.666;2023-02-15T04:53:56;101821.81;;;1.47;84.71
74895;BME280;63447;49.446;8.666;2023-02-15T04:56:23;101817.44;;;1.46;85.63
74895;BME280;63447;49.446;8.666;2023-02-15T04:58:49;101819.81;;;1.54;85.50
74895;BME280;63447;49.446;8.666;2023-02-15T05:01:14;101799.69;;;1.43;85.20
74895;BME280;63447;49.446;8.666;2023-02-15T05:03:42;101818.16;;;1.53;85.08
74895;BME280;63447;49.446;8.666;2023-02-15T05:06:07;101814.00;;;1.50;85.01
74895;BME280;63447;49.446;8.666;2023-02-15T05:08:35;101825.50;;;1.52;85.59
74895;BME280;63447;49.446;8.666;2023-02-15T05:11:00;101823.22;;;1.49;85.57
74895;BME280;63447;49.446;8.666;2023-02-15T05:13:26;101809.38;;;1.39;85.01
74895;BME280;63447;49.446;8.666;2023-02-15T05:15:52;101817.91;;;1.43;84.61
74895;BME280;63447;49.446;8.666;2023-02-15T05:18:21;101809.25;;;1.34;85.31
74895;BME280;63447;49.446;8.666;2023-02-15T05:20:47;101827.63;;;1.50;85.13
74895;BME280;63447;49.446;8.666;2023-02-15T05:23:14;101830.34;;;1.50;84.51
74895;BME280;63447;49.446;8.666;2023-02-15T05:25:40;101819.91;;;1.47;84.85
74895;BME280;63447;49.446;8.666;2023-02-15T05:28:27;101822.88;;;1.46;83.85
74895;BME280;63447;49.446;8.666;2023-02-15T05:33:30;101815.44;;;1.53;84.28
74895;BME280;63447;49.446;8.666;2023-02-15T05:35:56;101814.59;;;1.52;84.60
74895;BME280;63447;49.446;8.666;2023-02-15T05:38:21;101819.06;;;1.58;83.74
74895;BME280;63447;49.446;8.666;2023-02-15T05:40:49;101821.56;;;1.60;84.62
74895;BME280;63447;49.446;8.666;2023-02-15T05:43:17;101827.13;;;1.65;84.49
74895;BME280;63447;49.446;8.666;2023-02-15T05:45:52;101832.47;;;1.72;84.87
74895;BME280;63447;49.446;8.666;2023-02-15T05:48:19;101828.78;;;1.78;85.02
74895;BME280;63447;49.446;8.666;2023-02-15T05:50:44;101834.59;;;1.81;84.03
74895;BME280;63447;49.446;8.666;2023-02-15T05:53:12;101833.16;;;1.79;83.67
74895;BME280;63447;49.446;8.666;2023-02-15T05:55:42;101830.31;;;1.74;84.25
74895;BME280;63447;49.446;8.666;2023-02-15T05:58:10;101840.16;;;1.75;83.67
74895;BME280;63447;49.446;8.666;2023-02-15T06:00:35;101829.84;;;1.65;83.52
74895;BME280;63447;49.446;8.666;2023-02-15T06:03:03;101843.34;;;1.72;84.67
74895;BME280;63447;49.446;8.666;2023-02-15T06:05:28;101828.78;;;1.66;83.87
74895;BME280;63447;49.446;8.666;2023-02-15T06:07:56;101834.69;;;1.63;84.52
74895;BME280;63447;49.446;8.666;2023-02-15T06:10:21;101814.81;;;1.39;83.61
74895;BME280;63447;49.446;8.666;2023-02-15T06:12:47;101813.03;;;1.33;85.34
74895;BME280;63447;49.446;8.666;2023-02-15T06:15:12;101826.78;;;1.50;85.16
74895;BME280;63447;49.446;8.666;2023-02-15T06:17:42;101843.91;;;1.62;85.22
74895;BME280;63447;49.446;8.666;2023-02-15T06:20:10;101838.84;;;1.65;84.49
74895;BME280;63447;49.446;8.666;2023-02-15T06:22:38;101830.19;;;1.57;84.70
74895;BME280;63447;49.446;8.666;2023-02-15T06:25:06;101821.13;;;1.51;84.83
74895;BME280;63447;49.446;8.666;2023-02-15T06:27:37;101830.09;;;1.63;84.76
74895;BME280;63447;49.446;8.666;2023-02-15T06:30:05;101844.16;;;1.72;84.84
74895;BME280;63447;49.446;8.666;2023-02-15T06:32:36;101851.03;;;1.75;85.15
74895;BME280;63447;49.446;8.666;2023-02-15T06:35:01;101837.88;;;1.83;86.38
74895;BME280;63447;49.446;8.666;2023-02-15T06:37:26;101840.00;;;1.93;86.11
74895;BME280;63447;49.446;8.666;2023-02-15T06:39:52;101861.88;;;2.10;86.53
74895;BME280;63447;49.446;8.666;2023-02-15T06:42:21;101853.44;;;2.23;86.23
74895;BME280;63447;49.446;8.666;2023-02-15T06:44:47;101862.28;;;2.42;85.11
74895;BME280;63447;49.446;8.666;2023-02-15T06:47:12;101865.34;;;2.45;85.59
74895;BME280;63447;49.446;8.666;2023-02-15T06:49:40;101869.88;;;2.68;85.84
74895;BME280;63447;49.446;8.666;2023-02-15T06:52:05;101868.41;;;2.49;81.98
74895;BME280;63447;49.446;8.666;2023-02-15T06:54:33;101862.16;;;2.48;82.47
74895;BME280;63447;49.446;8.666;2023-02-15T06:56:59;101862.88;;;2.44;81.75
74895;BME280;63447;49.446;8.666;2023-02-15T06:59:24;101857.53;;;2.37;81.94
74895;BME280;63447;49.446;8.666;2023-02-15T07:01:49;101860.31;;;2.25;82.57
74895;BME280;63447;49.446;8.666;2023-02-15T07:04:17;101869.19;;;2.21;81.14
74895;BME280;63447;49.446;8.666;2023-02-15T07:06:42;101863.41;;;2.17;83.66
74895;BME280;63447;49.446;8.666;2023-02-15T07:09:08;101860.56;;;2.12;83.28
74895;BME280;63447;49.446;8.666;2023-02-15T07:11:35;101863.75;;;2.09;83.72
74895;BME280;63447;49.446;8.666;2023-02-15T07:14:19;101852.38;;;2.12;83.49
74895;BME280;63447;49.446;8.666;2023-02-15T07:16:45;101868.84;;;2.17;83.29
74895;BME280;63447;49.446;8.666;2023-02-15T07:19:10;101845.22;;;2.06;83.72
74895;BME280;63447;49.446;8.666;2023-02-15T07:21:35;101867.53;;;2.20;83.52
74895;BME280;63447;49.446;8.666;2023-02-15T07:24:04;101868.59;;;2.19;83.13
74895;BME280;63447;49.446;8.666;2023-02-15T07:26:32;101876.66;;;2.25;83.40
74895;BME280;63447;49.446;8.666;2023-02-15T07:29:00;101858.53;;;2.19;83.78
74895;BME280;63447;49.446;8.666;2023-02-15T07:31:30;101859.13;;;2.21;83.75
74895;BME280;63447;49.446;8.666;2023-02-15T07:33:56;101869.91;;;2.28;83.23
74895;BME280;63447;49.446;8.666;2023-02-15T07:36:22;101874.03;;;2.30;82.75
74895;BME280;63447;49.446;8.666;2023-02-15T07:38:49;101875.34;;;2.28;83.74
74895;BME280;63447;49.446;8.666;2023-02-15T07:41:18;101878.75;;;2.35;83.15
74895;BME280;63447;49.446;8.666;2023-02-15T07:43:44;101871.31;;;2.30;83.94
74895;BME280;63447;49.446;8.666;2023-02-15T07:46:12;101878.06;;;2.28;83.27
74895;BME280;63447;49.446;8.666;2023-02-15T07:48:39;101864.22;;;2.18;83.89
74895;BME280;63447;49.446;8.666;2023-02-15T07:51:07;101848.06;;;1.88;85.66
74895;BME280;63447;49.446;8.666;2023-02-15T07:53:37;101857.75;;;2.07;85.57
74895;BME280;63447;49.446;8.666;2023-02-15T07:56:05;101846.16;;;2.00;85.21
74895;BME280;63447;49.446;8.666;2023-02-15T07:58:31;101838.13;;;1.70;85.03
74895;BME280;63447;49.446;8.666;2023-02-15T08:01:15;101842.41;;;1.78;86.17
74895;BME280;63447;49.446;8.666;2023-02-15T08:03:40;101838.94;;;1.94;87.26
74895;BME280;63447;49.446;8.666;2023-02-15T08:06:08;101855.16;;;1.89;86.22
74895;BME280;63447;49.446;8.666;2023-02-15T08:08:34;101848.41;;;1.91;86.29
74895;BME280;63447;49.446;8.666;2023-02-15T08:13:52;101835.97;;;1.84;87.48
74895;BME280;63447;49.446;8.666;2023-02-15T08:16:29;101842.41;;;1.78;86.96
74895;BME280;63447;49.446;8.666;2023-02-15T08:18:55;101843.94;;;1.74;85.49
74895;BME280;63447;49.446;8.666;2023-02-15T08:21:22;101858.81;;;1.59;86.81
74895;BME280;63447;49.446;8.666;2023-02-15T08:23:50;101839.31;;;1.62;88.18
74895;BME280;63447;49.446;8.666;2023-02-15T08:26:16;101855.41;;;1.76;87.35
74895;BME280;63447;49.446;8.666;2023-02-15T08:28:42;101829.25;;;1.63;86.44
74895;BME280;63447;49.446;8.666;2023-02-15T08:31:12;101855.63;;;1.39;88.37
74895;BME280;63447;49.446;8.666;2023-02-15T08:33:41;101853.81;;;1.21;90.08
74895;BME280;63447;49.446;8.666;2023-02-15T08:36:14;101838.91;;;1.12;89.76
74895;BME280;63447;49.446;8.666;2023-02-15T08:38:43;101834.06;;;1.02;90.73
74895;BME280;63447;49.446;8.666;2023-02-15T08:41:19;101841.03;;;1.10;91.92
74895;BME280;63447;49.446;8.666;2023-02-15T08:43:47;101846.59;;;1.04;91.11
74895;BME280;63447;49.446;8.666;2023-02-15T08:46:15;101844.34;;;1.12;91.18
74895;BME280;63447;49.446;8.666;2023-02-15T08:48:45;101839.31;;;1.27;91.59
74895;BME280;63447;49.446;8.666;2023-02-15T08:51:18;101826.28;;;1.41;91.15
74895;BME280;63447;49.446;8.666;2023-02-15T08:53:49;101850.06;;;1.69;89.83
74895;BME280;63447;49.446;8.666;2023-02-15T08:56:20;101837.78;;;1.78;89.25
74895;BME280;63447;49.446;8.666;2023-02-15T08:58:48;101830.78;;;1.94;89.54
74895;BME280;63447;49.446;8.666;2023-02-15T09:01:19;101828.41;;;1.97;88.65
74895;BME280;63447;49.446;8.666;2023-02-15T09:03:51;101821.91;;;1.87;87.05
74895;BME280;63447;49.446;8.666;2023-02-15T09:06:21;101827.81;;;1.84;88.29
74895;BME280;63447;49.446;8.666;2023-02-15T09:08:52;101825.69;;;1.97;88.08
74895;BME280;63447;49.446;8.666;2023-02-15T09:11:21;101826.28;;;1.99;88.24
74895;BME280;63447;49.446;8.666;2023-02-15T09:13:58;101818.53;;;2.20;87.07
74895;BME280;63447;49.446;8.666;2023-02-15T09:16:27;101812.66;;;1.99;87.28
74895;BME280;63447;49.446;8.666;2023-02-15T09:18:58;101817.63;;;2.02;86.14
74895;BME280;63447;49.446;8.666;2023-02-15T09:21:26;101820.72;;;2.06;85.91
74895;BME280;63447;49.446;8.666;2023-02-15T09:23:55;101822.50;;;1.89;85.83
74895;BME280;63447;49.446;8.666;2023-02-15T09:26:25;101812.31;;;1.96;86.81
74895;BME280;63447;49.446;8.666;2023-02-15T09:28:55;101807.34;;;1.93;88.42
74895;BME280;63447;49.446;8.666;2023-02-15T09:31:30;101814.28;;;2.12;85.97
74895;BME280;63447;49.446;8.666;2023-02-15T09:33:56;101795.09;;;2.19;86.08
74895;BME280;63447;49.446;8.666;2023-02-15T09:36:26;101802.66;;;2.17;86.21
74895;BME280;63447;49.446;8.666;2023-02-15T09:39:14;101792.72;;;2.22;85.95
74895;BME280;63447;49.446;8.666;2023-02-15T09:54:45;101809.94;;;2.68;84.62
74895;BME280;63447;49.446;8.666;2023-02-15T10:05:39;101805.75;;;2.77;84.84
74895;BME280;63447;49.446;8.666;2023-02-15T10:08:21;101804.47;;;2.68;81.46
74895;BME280;63447;49.446;8.666;2023-02-15T10:22:43;101804.03;;;2.88;81.12
74895;BME280;63447;49.446;8.666;2023-02-15T10:25:23;101818.41;;;2.26;83.14
74895;BME280;63447;49.446;8.666;2023-02-15T10:28:04;101814.78;;;2.37;83.59
74895;BME280;63447;49.446;8.666;2023-02-15T10:30:53;101823.72;;;2.21;84.25
74895;BME280;63447;49.446;8.666;2023-02-15T10:42:02;101834.25;;;2.29;83.64
74895;BME280;63447;49.446;8.666;2023-02-15T10:44:51;101829.06;;;2.28;83.83
74895;BME280;63447;49.446;8.666;2023-02-15T10:50:24;101837.66;;;1.61;85.12
74895;BME280;63447;49.446;8.666;2023-02-15T11:06:25;101809.56;;;2.48;82.01
74895;BME280;63447;49.446;8.666;2023-02-15T11:09:04;101811.44;;;2.47;81.66
74895;BME280;63447;49.446;8.666;2023-02-15T11:11:38;101820.69;;;2.75;81.80
74895;BME280;63447;49.446;8.666;2023-02-15T11:16:41;101806.69;;;2.14;82.91
74895;BME280;63447;49.446;8.666;2023-02-15T11:19:21;101791.59;;;2.07;82.70
74895;BME280;63447;49.446;8.666;2023-02-15T11:21:55;101803.31;;;2.07;84.71
74895;BME280;63447;49.446;8.666;2023-02-15T11:24:27;101779.09;;;2.22;83.24
74895;BME280;63447;49.446;8.666;2023-02-15T11:27:19;101773.34;;;2.35;81.12
74895;BME280;63447;49.446;8.666;2023-02-15T11:30:00;101791.28;;;2.31;81.54
74895;BME280;63447;49.446;8.666;2023-02-15T11:32:33;101782.94;;;2.38;82.09
74895;BME280;63447;49.446;8.666;2023-02-15T11:37:46;101766.09;;;2.69;82.00
74895;BME280;63447;49.446;8.666;2023-02-15T11:40:27;101768.78;;;2.53;81.44
74895;BME280;63447;49.446;8.666;2023-02-15T11:43:02;101750.97;;;2.62;79.89
74895;BME280;63447;49.446;8.666;2023-02-15T11:45:33;101759.28;;;2.84;81.33
74895;BME280;63447;49.446;8.666;2023-02-15T11:48:10;101756.69;;;2.77;80.42
74895;BME280;63447;49.446;8.666;2023-02-15T11:50:41;101748.78;;;2.47;81.09
74895;BME280;63447;49.446;8.666;2023-02-15T11:53:13;101771.00;;;3.01;82.12
74895;BME280;63447;49.446;8.666;2023-02-15T11:55:42;101772.16;;;3.22;79.33
74895;BME280;63447;49.446;8.666;2023-02-15T11:58:22;101750.66;;;2.75;80.59
74895;BME280;63447;49.446;8.666;2023-02-15T12:00:53;101765.88;;;3.04;79.07
74895;BME280;63447;49.446;8.666;2023-02-15T12:03:34;101744.63;;;3.23;80.58
74895;BME280;63447;49.446;8.666;2023-02-15T12:06:11;101727.13;;;3.58;79.72
74895;BME280;63447;49.446;8.666;2023-02-15T12:08:40;101737.28;;;4.06;77.96
74895;BME280;63447;49.446;8.666;2023-02-15T12:11:14;101719.22;;;4.54;75.91
74895;BME280;63447;49.446;8.666;2023-02-15T12:16:27;101714.06;;;4.30;76.54
74895;BME280;63447;49.446;8.666;2023-02-15T12:19:02;101716.03;;;4.35;74.04
74895;BME280;63447;49.446;8.666;2023-02-15T12:21:33;101720.59;;;4.83;72.34
74895;BME280;63447;49.446;8.666;2023-02-15T12:27:05;101701.31;;;5.42;69.77
74895;BME280;63447;49.446;8.666;2023-02-15T12:29:39;101712.44;;;5.30;69.53
74895;BME280;63447;49.446;8.666;2023-02-15T12:32:25;101709.41;;;5.27;74.44
74895;BME280;63447;49.446;8.666;2023-02-15T12:34:56;101715.03;;;5.52;69.64
74895;BME280;63447;49.446;8.666;2023-02-15T12:37:27;101696.69;;;5.53;69.15
74895;BME280;63447;49.446;8.666;2023-02-15T12:39:58;101707.69;;;5.58;71.68
74895;BME280;63447;49.446;8.666;2023-02-15T12:42:34;101699.56;;;5.83;69.53
74895;BME280;63447;49.446;8.666;2023-02-15T12:45:29;101693.47;;;6.38;65.92
74895;BME280;63447;49.446;8.666;2023-02-15T12:50:50;101693.59;;;8.33;62.00
74895;BME280;63447;49.446;8.666;2023-02-15T12:53:38;101682.59;;;8.33;58.74
74895;BME280;63447;49.446;8.666;2023-02-15T12:56:09;101683.81;;;8.90;55.41
74895;BME280;63447;49.446;8.666;2023-02-15T12:58:39;101676.91;;;8.93;56.80
74895;BME280;63447;49.446;8.666;2023-02-15T13:01:16;101686.41;;;8.76;56.36
74895;BME280;63447;49.446;8.666;2023-02-15T13:03:59;101686.38;;;8.42;56.87
74895;BME280;63447;49.446;8.666;2023-02-15T13:06:27;101676.25;;;8.72;56.06
74895;BME280;63447;49.446;8.666;2023-02-15T13:09:11;101678.69;;;9.84;56.30
74895;BME280;63447;49.446;8.666;2023-02-15T13:11:43;101672.06;;;11.11;53.21
74895;BME280;63447;49.446;8.666;2023-02-15T13:14:25;101662.09;;;12.56;48.94
74895;BME280;63447;49.446;8.666;2023-02-15T13:17:00;101672.72;;;11.63;47.82
74895;BME280;63447;49.446;8.666;2023-02-15T13:19:43;101672.28;;;11.29;49.67
74895;BME280;63447;49.446;8.666;2023-02-15T13:22:17;101659.63;;;12.77;48.02
74895;BME280;63447;49.446;8.666;2023-02-15T13:24:58;101659.22;;;13.93;44.25
74895;BME280;63447;49.446;8.666;2023-02-15T13:27:39;101652.28;;;14.65;41.49
74895;BME280;63447;49.446;8.666;2023-02-15T13:32:54;101646.19;;;16.33;36.31
74895;BME280;63447;49.446;8.666;2023-02-15T13:35:26;101638.59;;;16.75;35.41
74895;BME280;63447;49.446;8.666;2023-02-15T13:40:55;101639.81;;;16.86;34.95
74895;BME280;63447;49.446;8.666;2023-02-15T13:43:35;101635.34;;;16.73;35.48
74895;BME280;63447;49.446;8.666;2023-02-15T13:51:56;101626.25;;;15.80;36.10
74895;BME280;63447;49.446;8.666;2023-02-15T13:54:33;101612.16;;;16.81;35.61
74895;BME280;63447;49.446;8.666;2023-02-15T14:10:57;101604.34;;;17.92;31.79
74895;BME280;63447;49.446;8.666;2023-02-15T14:17:03;101605.22;;;18.77;31.36
74895;BME280;63447;49.446;8.666;2023-02-15T14:20:19;101600.88;;;18.23;32.42
74895;BME280;63447;49.446;8.666;2023-02-15T14:30:24;101590.53;;;17.35;34.28
74895;BME280;63447;49.446;8.666;2023-02-15T14:33:01;101598.63;;;16.71;34.43
74895;BME280;63447;49.446;8.666;2023-02-15T14:35:36;101586.34;;;16.72;34.27
74895;BME280;63447;49.446;8.666;2023-02-15T14:41:47;101590.16;;;16.46;36.15
74895;BME280;63447;49.446;8.666;2023-02-15T14:48:49;101589.28;;;16.54;35.75
74895;BME280;63447;49.446;8.666;2023-02-15T14:56:45;101577.53;;;18.44;32.08
74895;BME280;63447;49.446;8.666;2023-02-15T15:01:37;101577.16;;;17.65;31.61
74895;BME280;63447;49.446;8.666;2023-02-15T15:04:21;101568.63;;;16.55;34.13
74895;BME280;63447;49.446;8.666;2023-02-15T15:07:38;101575.19;;;15.76;38.90
74895;BME280;63447;49.446;8.666;2023-02-15T15:12:57;101573.13;;;16.81;35.37
74895;BME280;63447;49.446;8.666;2023-02-15T15:18:42;101579.22;;;17.07;33.88
74895;BME280;63447;49.446;8.666;2023-02-15T15:20:54;101573.38;;;17.00;34.42
74895;BME280;63447;49.446;8.666;2023-02-15T15:25:45;101585.91;;;16.28;36.43
74895;BME280;63447;49.446;8.666;2023-02-15T15:42:32;101590.34;;;15.20;38.85
74895;BME280;63447;49.446;8.666;2023-02-15T15:50:31;101590.19;;;13.92;39.87
74895;BME280;63447;49.446;8.666;2023-02-15T15:52:59;101580.41;;;13.20;41.65
74895;BME280;63447;49.446;8.666;2023-02-15T15:55:30;101595.03;;;12.14;44.49
74895;BME280;63447;49.446;8.666;2023-02-15T15:58:02;101600.94;;;11.03;47.75
74895;BME280;63447;49.446;8.666;2023-02-15T16:00:39;101584.94;;;10.03;52.33
74895;BME280;63447;49.446;8.666;2023-02-15T16:03:20;101575.28;;;9.44;52.30
74895;BME280;63447;49.446;8.666;2023-02-15T16:05:46;101592.84;;;9.05;54.97
74895;BME280;63447;49.446;8.666;2023-02-15T16:08:15;101591.53;;;8.69;55.16
74895;BME280;63447;49.446;8.666;2023-02-15T16:10:54;101608.78;;;8.50;55.64
74895;BME280;63447;49.446;8.666;2023-02-15T16:13:20;101605.16;;;8.16;57.17
74895;BME280;63447;49.446;8.666;2023-02-15T16:15:47;101599.84;;;7.86;59.38
74895;BME280;63447;49.446;8.666;2023-02-15T16:18:20;101609.84;;;7.66;60.14